Time;durP1;ratioP1;P1;durP2;ratioP2;P2;SDS_P1;SDS_P2;PMS_P1;PMS_P2;Temp;Humidity;BMP_temperature;BMP_pressure;BME280_temperature;BME280_humidity;BME280_pressure;Samples;Min_cycle;Max_cycle;Signal;HPM_P1;HPM_P2
2022/04/23 00:00:21;;;;;;;18.30;6.80;;;;;;;10.87;53.14;100199.65;117273;1186;23538;-56
2022/04/23 00:02:50;;;;;;;18.80;7.80;;;;;;;10.87;53.04;100193.86;117342;1186;23451;-47
2022/04/23 00:05:18;;;;;;;14.20;6.10;;;;;;;10.88;53.15;100191.56;117366;1186;22789;-56
2022/04/23 00:07:51;;;;;;;11.60;6.90;;;;;;;10.91;53.14;100188.88;117247;1185;23475;-47
2022/04/23 00:10:21;;;;;;;14.00;7.20;;;;;;;10.93;52.98;100187.25;117348;1186;23447;-56
2022/04/23 00:12:50;;;;;;;18.60;7.20;;;;;;;10.96;53.22;100183.17;117279;1186;21893;-47
2022/04/23 00:15:25;;;;;;;14.20;6.40;;;;;;;10.98;53.19;100187.02;117257;1186;23535;-55
2022/04/23 00:17:54;;;;;;;12.50;6.70;;;;;;;11.00;53.29;100184.17;117367;1185;22157;-49
2022/04/23 00:20:23;;;;;;;13.60;6.30;;;;;;;11.00;53.46;100176.98;117340;1185;24162;-47
2022/04/23 00:22:54;;;;;;;15.90;7.00;;;;;;;11.00;53.29;100183.46;117390;1186;24151;-57
2022/04/23 00:25:32;;;;;;;16.10;6.80;;;;;;;10.99;53.30;100173.64;117259;1186;23450;-49
2022/04/23 00:28:01;;;;;;;;;;;;;;;10.98;53.36;100173.83;117356;1185;22961;-48
2022/04/23 00:30:30;;;;;;;18.80;7.70;;;;;;;10.97;53.27;100168.95;117353;1186;23566;-57
2022/04/23 00:33:02;;;;;;;12.40;6.40;;;;;;;10.94;53.40;100159.52;117347;1186;23488;-47
2022/04/23 00:35:37;;;;;;;19.20;7.70;;;;;;;10.93;53.22;100159.17;117262;1186;23449;-47
2022/04/23 00:38:07;;;;;;;17.20;6.90;;;;;;;10.93;53.24;100170.25;117351;1186;23439;-47
2022/04/23 00:40:35;;;;;;;15.10;7.30;;;;;;;10.91;53.24;100183.27;117276;1186;23478;-47
2022/04/23 00:43:10;;;;;;;14.30;6.60;;;;;;;10.90;53.22;100191.70;117372;1182;21892;-57
2022/04/23 00:45:39;;;;;;;21.10;7.60;;;;;;;10.88;53.28;100197.00;117282;1186;22925;-47
2022/04/23 00:48:08;;;;;;;15.50;7.10;;;;;;;10.89;53.17;100198.20;117347;1183;21851;-57
2022/04/23 00:50:38;;;;;;;17.40;8.00;;;;;;;10.90;53.34;100187.15;117315;1185;23535;-47
2022/04/23 00:53:06;;;;;;;13.90;7.30;;;;;;;10.91;53.29;100183.27;117319;1186;23626;-57
2022/04/23 00:55:37;;;;;;;14.20;7.00;;;;;;;10.90;53.46;100187.33;117235;1187;22899;-56
2022/04/23 00:58:06;;;;;;;17.40;7.30;;;;;;;10.88;53.51;100185.77;117349;1185;23442;-56
2022/04/23 01:00:40;;;;;;;16.60;7.20;;;;;;;10.90;53.33;100178.02;117348;1185;21852;-47
2022/04/23 01:03:16;;;;;;;21.00;8.80;;;;;;;10.90;53.29;100176.10;117343;1184;23682;-47
2022/04/23 01:05:45;;;;;;;17.40;7.10;;;;;;;10.88;53.11;100178.74;117421;1185;23455;-56
2022/04/23 01:08:15;;;;;;;16.80;7.10;;;;;;;10.86;53.21;100178.06;117372;1185;21849;-47
2022/04/23 01:10:48;;;;;;;20.90;7.60;;;;;;;10.86;53.35;100172.28;117313;1186;24248;-56
2022/04/23 01:13:18;;;;;;;14.50;8.00;;;;;;;10.87;53.26;100172.45;117406;1185;21846;-47
2022/04/23 01:16:04;;;;;;;14.40;6.90;;;;;;;10.86;53.27;100165.27;117366;1185;22613;-47
2022/04/23 01:18:33;;;;;;;15.80;8.00;;;;;;;10.89;53.35;100155.58;117341;1184;21859;-56
2022/04/23 01:21:09;;;;;;;16.10;7.90;;;;;;;10.85;53.42;100153.16;117377;1184;23445;-47
2022/04/23 01:23:43;;;;;;;17.10;7.50;;;;;;;10.86;53.50;100152.09;117373;1185;21993;-47
2022/04/23 01:26:11;;;;;;;18.90;7.70;;;;;;;10.88;53.58;100152.58;117339;1186;21860;-56
2022/04/23 01:28:40;;;;;;;15.40;7.70;;;;;;;10.88;53.49;100155.74;117322;1185;21966;-56
2022/04/23 01:31:11;;;;;;;16.30;8.20;;;;;;;10.88;53.56;100156.63;117358;1182;23449;-47
2022/04/23 01:33:40;;;;;;;16.50;7.10;;;;;;;10.87;53.53;100159.98;117392;1185;21830;-47
2022/04/23 01:36:09;;;;;;;18.10;8.00;;;;;;;10.86;53.58;100153.86;117384;1185;24184;-57
2022/04/23 01:38:37;;;;;;;16.60;8.70;;;;;;;10.87;53.52;100135.76;117348;1185;23452;-47
2022/04/23 01:41:07;;;;;;;19.10;8.10;;;;;;;10.87;53.54;100130.66;117423;1184;24132;-48
2022/04/23 01:43:38;;;;;;;16.60;7.20;;;;;;;10.88;53.46;100129.25;117381;1185;21840;-56
2022/04/23 01:46:06;;;;;;;14.20;6.60;;;;;;;10.88;53.50;100118.20;117338;1184;24145;-57
2022/04/23 01:48:35;;;;;;;16.60;7.10;;;;;;;10.87;53.50;100121.01;117434;1184;21994;-47
2022/04/23 01:51:04;;;;;;;15.30;7.40;;;;;;;10.87;53.43;100122.08;117388;1186;21886;-52
2022/04/23 01:53:33;;;;;;;16.40;7.00;;;;;;;10.85;53.55;100114.20;117338;1185;21865;-56
2022/04/23 01:56:01;;;;;;;14.70;7.20;;;;;;;10.85;53.50;100115.78;117399;1184;23469;-56
2022/04/23 01:58:32;;;;;;;11.00;6.40;;;;;;;10.85;53.46;100109.64;117408;1184;22262;-47
2022/04/23 02:01:02;;;;;;;17.30;7.10;;;;;;;10.84;53.47;100111.23;117434;1185;21853;-47
2022/04/23 02:03:32;;;;;;;14.50;7.50;;;;;;;10.83;53.48;100111.59;117381;1180;22942;-56
2022/04/23 02:06:05;;;;;;;13.40;7.00;;;;;;;10.83;53.38;100111.60;117307;1185;23550;-48
2022/04/23 02:08:34;;;;;;;12.40;6.30;;;;;;;10.82;53.38;100114.25;117420;1185;22151;-47
2022/04/23 02:11:02;;;;;;;15.40;7.10;;;;;;;10.80;53.42;100111.84;117379;1185;22496;-47
2022/04/23 02:13:34;;;;;;;15.10;6.20;;;;;;;10.80;53.51;100104.48;117426;1185;21849;-56
2022/04/23 02:16:04;;;;;;;15.10;7.20;;;;;;;10.79;53.33;100101.48;117355;1184;21852;-46
2022/04/23 02:18:34;;;;;;;17.50;6.60;;;;;;;10.78;53.45;100096.09;117374;1185;23468;-56
2022/04/23 02:21:02;;;;;;;13.00;6.70;;;;;;;10.77;53.40;100096.10;117419;1183;21836;-47
2022/04/23 02:23:32;;;;;;;16.70;6.00;;;;;;;10.78;53.54;100089.41;117271;1186;23446;-57
2022/04/23 02:26:00;;;;;;;16.00;6.50;;;;;;;10.78;53.62;100080.27;117348;1180;24158;-48
2022/04/23 02:28:30;;;;;;;15.50;6.50;;;;;;;10.80;53.71;100076.21;117357;1180;23820;-57
2022/04/23 02:31:02;;;;;;;15.60;6.50;;;;;;;10.81;53.52;100073.21;117291;1185;23550;-57
2022/04/23 02:33:32;;;;;;;19.20;7.10;;;;;;;10.80;53.38;100075.70;117356;1185;23475;-48
2022/04/23 02:36:00;;;;;;;16.90;5.50;;;;;;;10.78;53.42;100077.83;117444;1185;22640;-57
2022/04/23 02:38:31;;;;;;;12.40;5.70;;;;;;;10.76;53.39;100080.86;117404;1185;22281;-58
2022/04/23 02:40:59;;;;;;;12.40;6.00;;;;;;;10.74;53.39;100084.93;117350;1185;23472;-48
2022/04/23 02:43:29;;;;;;;;;;;;;;;10.72;53.29;100090.90;117356;1184;21833;-48
2022/04/23 02:45:59;;;;;;;12.00;5.60;;;;;;;10.69;53.28;100082.52;117387;1184;23453;-48
2022/04/23 02:48:28;;;;;;;12.50;6.10;;;;;;;10.68;53.27;100086.77;117383;1184;21852;-57
2022/04/23 02:51:01;;;;;;;13.40;5.90;;;;;;;10.65;53.33;100088.05;117310;1185;24233;-57
2022/04/23 02:53:31;;;;;;;14.40;6.20;;;;;;;10.63;53.35;100085.45;117352;1185;23499;-47
2022/04/23 02:56:05;;;;;;;14.30;5.80;;;;;;;10.62;53.31;100089.84;117293;1185;23452;-47
2022/04/23 02:58:34;;;;;;;12.10;5.90;;;;;;;10.60;53.35;100094.28;117411;1184;22812;-57
2022/04/23 03:01:03;;;;;;;15.20;6.00;;;;;;;10.59;53.18;100099.73;117357;1185;23455;-57
2022/04/23 03:03:49;;;;;;;16.40;5.90;;;;;;;10.58;53.19;100104.14;117323;1186;24159;-57
2022/04/23 03:06:18;;;;;;;14.10;6.10;;;;;;;10.57;53.21;100103.80;117352;1185;21923;-47
2022/04/23 03:08:49;;;;;;;16.00;6.80;;;;;;;10.56;53.31;100104.17;117385;1188;22004;-57
2022/04/23 03:11:17;;;;;;;11.80;5.00;;;;;;;10.55;53.21;100099.80;117330;1185;23446;-47
2022/04/23 03:13:46;;;;;;;13.10;5.60;;;;;;;10.55;53.16;100092.61;117422;1185;22000;-57
2022/04/23 03:16:14;;;;;;;14.00;5.50;;;;;;;10.54;53.20;100090.70;117397;1185;23551;-57
2022/04/23 03:18:44;;;;;;;10.50;5.60;;;;;;;10.54;53.31;100084.89;117364;1185;24708;-57
2022/04/23 03:21:12;;;;;;;11.60;5.30;;;;;;;10.54;53.26;100079.13;117499;1185;23472;-57
2022/04/23 03:23:44;;;;;;;13.40;5.70;;;;;;;10.54;53.21;100079.65;117313;1185;23535;-57
2022/04/23 03:26:12;;;;;;;12.50;5.30;;;;;;;10.52;53.20;100086.34;117370;1185;21998;-48
2022/04/23 03:28:41;;;;;;;13.20;6.20;;;;;;;10.51;53.35;100096.35;117394;1184;22029;-57
2022/04/23 03:31:11;;;;;;;12.00;6.00;;;;;;;10.49;53.27;100093.59;117431;1182;21875;-47
2022/04/23 03:33:40;;;;;;;15.20;5.90;;;;;;;10.49;53.20;100094.12;117381;1184;21853;-57
2022/04/23 03:36:08;;;;;;;11.40;5.70;;;;;;;10.48;53.27;100095.89;117336;1185;23469;-54
2022/04/23 03:38:37;;;;;;;11.90;5.90;;;;;;;10.46;53.25;100085.04;117394;1185;23448;-47
2022/04/23 03:41:06;;;;;;;18.60;6.60;;;;;;;10.47;53.27;100087.66;117420;1185;23576;-47
2022/04/23 03:43:35;;;;;;;12.20;5.40;;;;;;;10.48;53.35;100087.63;117373;1184;21850;-47
2022/04/23 03:46:07;;;;;;;14.10;6.90;;;;;;;10.50;53.38;100081.81;117328;1185;21968;-57
2022/04/23 03:48:36;;;;;;;13.70;5.80;;;;;;;10.54;53.36;100080.88;117436;1184;22940;-57
2022/04/23 03:51:05;;;;;;;15.80;5.90;;;;;;;10.60;53.40;100085.86;117411;1184;22999;-57
2022/04/23 03:53:37;;;;;;;13.60;5.90;;;;;;;10.66;53.36;100080.83;117381;1185;23472;-58
2022/04/23 03:56:06;;;;;;;18.60;6.80;;;;;;;10.72;53.26;100083.89;117315;1185;23435;-50
2022/04/23 03:58:45;;;;;;;12.10;5.90;;;;;;;10.77;53.27;100080.47;117357;1185;24718;-57
2022/04/23 04:01:14;;;;;;;14.60;5.70;;;;;;;10.82;53.40;100068.45;117340;1185;23451;-57
2022/04/23 04:03:43;;;;;;;18.30;6.30;;;;;;;10.84;53.28;100061.91;117382;1184;22649;-57
2022/04/23 04:06:13;;;;;;;14.80;6.00;;;;;;;10.86;53.18;100061.35;117384;1185;21973;-52
2022/04/23 04:08:42;;;;;;;18.70;7.20;;;;;;;10.88;53.07;100055.55;117459;1185;23456;-48
2022/04/23 04:11:10;;;;;;;14.70;6.40;;;;;;;10.89;53.36;100047.79;117383;1185;21967;-57
2022/04/23 04:13:39;;;;;;;13.50;6.40;;;;;;;10.91;53.34;100045.29;117382;1185;22989;-47
2022/04/23 04:16:10;;;;;;;15.90;6.30;;;;;;;10.95;53.30;100049.25;117471;1185;21846;-48
2022/04/23 04:18:41;;;;;;;13.80;5.90;;;;;;;10.99;53.12;100047.24;117369;1184;23475;-54
2022/04/23 04:21:09;;;;;;;15.50;6.30;;;;;;;11.03;53.31;100041.20;117361;1181;21836;-47
2022/04/23 04:23:39;;;;;;;16.70;6.60;;;;;;;11.07;53.20;100045.52;117309;1185;24159;-58
2022/04/23 04:26:11;;;;;;;16.50;7.20;;;;;;;11.12;53.32;100041.73;117389;1185;23462;-58
2022/04/23 04:28:40;;;;;;;14.30;6.70;;;;;;;11.19;53.20;100044.23;117814;1184;23451;-48
2022/04/23 04:34:00;;;;;;;12.80;6.30;;;;;;;11.31;53.43;100046.43;117385;1188;21910;-59
2022/04/23 04:36:28;;;;;;;13.50;5.70;;;;;;;11.35;53.51;100048.81;117402;1185;21849;-48
2022/04/23 04:38:58;;;;;;;12.80;5.90;;;;;;;11.38;53.42;100042.26;117446;1184;21854;-59
2022/04/23 04:41:31;;;;;;;14.10;5.50;;;;;;;11.42;53.47;100039.36;117323;1185;22992;-47
2022/04/23 04:43:59;;;;;;;12.30;5.80;;;;;;;11.47;53.45;100043.11;117389;1185;23605;-59
2022/04/23 04:46:27;;;;;;;12.80;5.60;;;;;;;11.53;53.60;100049.48;117451;1185;23572;-58
2022/04/23 04:48:57;;;;;;;11.60;5.90;;;;;;;11.58;53.66;100048.66;117422;1184;22606;-59
2022/04/23 04:51:26;;;;;;;9.40;5.10;;;;;;;11.66;53.71;100045.88;117357;1184;24166;-58
2022/04/23 04:53:56;;;;;;;14.20;6.30;;;;;;;11.74;53.61;100033.91;117371;1185;21968;-57
2022/04/23 04:56:25;;;;;;;12.80;6.10;;;;;;;11.82;53.67;100029.17;117407;1185;24166;-56
2022/04/23 04:58:53;;;;;;;15.10;6.10;;;;;;;11.89;53.63;100021.45;117374;1185;23491;-47
2022/04/23 05:01:22;;;;;;;12.70;5.40;;;;;;;11.95;53.64;100020.96;117386;1182;21873;-48
2022/04/23 05:03:53;;;;;;;13.30;5.40;;;;;;;12.00;53.64;100022.10;117296;1185;21888;-47
2022/04/23 05:06:22;;;;;;;11.10;5.80;;;;;;;12.05;53.74;100026.55;117343;1184;21997;-47
2022/04/23 05:08:50;;;;;;;10.70;5.10;;;;;;;12.12;53.68;100035.19;117360;1182;23449;-49
2022/04/23 05:11:18;;;;;;;13.30;5.90;;;;;;;12.19;53.83;100026.58;117286;1185;23439;-48
2022/04/23 05:13:47;;;;;;;12.80;5.60;;;;;;;12.26;53.83;100023.23;119447;1184;22277;-49
2022/04/23 05:16:15;;;;;;;12.90;5.10;;;;;;;12.30;53.76;100011.35;117349;1185;21890;-48
2022/04/23 05:18:44;;;;;;;10.90;5.00;;;;;;;12.32;53.50;100017.98;117388;1184;23448;-56
2022/04/23 05:21:13;;;;;;;11.90;5.40;;;;;;;12.33;53.53;100018.13;117303;1185;22648;-48
2022/04/23 05:23:41;;;;;;;14.20;5.70;;;;;;;12.35;53.61;100006.48;117295;1185;23449;-48
2022/04/23 05:26:10;;;;;;;13.70;5.30;;;;;;;12.31;53.77;100005.16;117597;1184;23472;-57
2022/04/23 05:28:41;;;;;;;10.30;5.30;;;;;;;12.30;54.02;100006.95;117274;1188;21858;-48
2022/04/23 05:31:12;;;;;;;11.20;5.30;;;;;;;12.35;54.04;100000.67;117298;1185;22008;-48
2022/04/23 05:33:41;;;;;;;13.90;5.00;;;;;;;12.41;54.13;100003.84;117360;1185;24151;-57
2022/04/23 05:36:11;;;;;;;15.00;5.40;;;;;;;12.47;54.05;99999.81;117378;1185;22944;-47
2022/04/23 05:38:42;;;;;;;;;;;;;;;12.54;54.14;100001.77;117304;1185;21906;-48
2022/04/23 05:41:10;;;;;;;12.60;5.30;;;;;;;12.59;54.27;100003.02;117323;1185;21851;-57
2022/04/23 05:43:38;;;;;;;17.10;5.20;;;;;;;12.61;54.16;100011.77;117333;1181;24155;-57
2022/04/23 05:46:08;;;;;;;11.70;4.90;;;;;;;12.62;54.11;100010.70;117344;1184;24699;-56
2022/04/23 05:48:44;;;;;;;9.60;4.50;;;;;;;12.61;54.17;99992.92;117372;1185;21954;-57
2022/04/23 05:51:12;;;;;;;12.80;5.00;;;;;;;12.63;54.11;99994.30;117350;1185;24236;-57
2022/04/23 05:53:42;;;;;;;10.10;4.50;;;;;;;12.68;54.26;99987.65;117332;1185;21857;-48
2022/04/23 05:56:10;;;;;;;9.90;4.60;;;;;;;12.75;54.23;100003.33;117303;1184;22624;-58
2022/04/23 05:58:38;;;;;;;10.60;4.60;;;;;;;12.84;54.26;99992.14;117291;1185;23500;-48
2022/04/23 06:01:07;;;;;;;9.20;4.60;;;;;;;12.98;54.25;99991.94;117834;1185;23548;-58
2022/04/23 06:03:37;;;;;;;9.10;4.40;;;;;;;13.09;54.11;99988.62;117341;1185;23588;-48
2022/04/23 06:06:08;;;;;;;9.80;4.50;;;;;;;13.17;53.99;99986.99;117350;1184;21845;-48
2022/04/23 06:08:41;;;;;;;12.30;4.80;;;;;;;13.21;53.88;99978.23;117321;1185;21839;-57
2022/04/23 06:11:09;;;;;;;10.90;4.60;;;;;;;13.25;53.84;99979.53;117318;1184;21858;-57
2022/04/23 06:13:38;;;;;;;8.50;4.60;;;;;;;13.29;54.07;99975.54;117388;1185;21849;-58
2022/04/23 06:16:09;;;;;;;15.20;6.30;;;;;;;13.31;53.90;99968.60;117343;1185;23471;-56
2022/04/23 06:18:37;;;;;;;11.90;5.00;;;;;;;13.35;53.93;99970.95;117448;1185;23590;-48
2022/04/23 06:21:05;;;;;;;10.30;4.70;;;;;;;13.41;53.82;99976.80;117367;1184;23445;-58
2022/04/23 06:23:34;;;;;;;13.60;5.50;;;;;;;13.47;53.97;99970.98;117431;1184;23446;-58
2022/04/23 06:26:06;;;;;;;9.70;4.70;;;;;;;13.52;53.87;99966.23;117319;1185;23628;-57
2022/04/23 06:28:34;;;;;;;11.70;4.90;;;;;;;13.60;53.83;99967.41;117396;1184;22992;-48
2022/04/23 06:31:04;;;;;;;13.00;5.90;;;;;;;13.68;53.85;99969.11;117346;1185;24239;-48
2022/04/23 06:33:42;;;;;;;13.10;5.40;;;;;;;13.78;53.85;99964.21;117309;1185;24225;-57
2022/04/23 06:36:10;;;;;;;11.80;5.20;;;;;;;13.85;53.87;99953.58;117333;1185;24173;-48
2022/04/23 06:38:39;;;;;;;13.50;5.10;;;;;;;13.94;53.96;99945.35;117402;1185;23576;-58
2022/04/23 06:41:07;;;;;;;13.00;4.60;;;;;;;14.01;53.83;99941.95;117367;1182;21866;-49
2022/04/23 06:43:36;;;;;;;10.30;4.70;;;;;;;14.07;53.94;99936.61;117366;1184;22314;-48
2022/04/23 06:46:04;;;;;;;9.90;4.30;;;;;;;14.12;53.73;99938.91;117326;1184;21889;-48
2022/04/23 06:48:33;;;;;;;12.70;4.50;;;;;;;14.14;53.58;99932.83;117371;1185;23458;-57
2022/04/23 06:51:02;;;;;;;14.90;6.00;;;;;;;14.13;53.78;99930.56;117371;1184;23577;-57
2022/04/23 06:53:33;;;;;;;12.10;4.60;;;;;;;14.15;53.71;99933.16;117367;1185;23595;-48
2022/04/23 06:56:03;;;;;;;10.50;4.60;;;;;;;14.17;53.64;99934.49;117355;1185;23714;-49
2022/04/23 06:58:31;;;;;;;10.90;4.60;;;;;;;14.21;53.61;99935.96;117370;1184;21837;-48
2022/04/23 07:01:00;;;;;;;11.00;4.30;;;;;;;14.26;53.75;99942.48;117364;1185;21856;-49
2022/04/23 07:03:30;;;;;;;10.00;4.60;;;;;;;14.34;53.70;99931.98;117397;1184;22889;-58
2022/04/23 07:05:59;;;;;;;12.40;4.20;;;;;;;14.48;53.82;99926.39;117294;1185;22676;-57
2022/04/23 07:08:31;;;;;;;9.30;4.60;;;;;;;14.59;53.72;99921.55;117347;1185;22689;-49
2022/04/23 07:11:01;;;;;;;9.70;4.20;;;;;;;14.72;53.74;99919.91;117367;1185;21842;-57
2022/04/23 07:13:29;;;;;;;8.70;4.50;;;;;;;14.85;53.80;99918.55;117355;1185;21840;-48
2022/04/23 07:15:59;;;;;;;11.60;4.50;;;;;;;14.94;53.72;99916.96;117402;1185;21852;-48
2022/04/23 07:18:32;;;;;;;11.60;4.30;;;;;;;15.00;53.63;99917.11;117327;1185;23646;-48
2022/04/23 07:21:01;;;;;;;14.00;4.80;;;;;;;15.07;53.59;99928.86;117465;1184;22358;-57
2022/04/23 07:26:18;;;;;;;12.20;4.50;;;;;;;15.13;53.45;99921.20;117415;1185;23448;-54
2022/04/23 07:28:50;;;;;;;10.80;4.20;;;;;;;15.23;53.64;99918.34;117296;1185;24162;-58
2022/04/23 07:31:19;;;;;;;8.50;3.90;;;;;;;15.35;53.53;99917.00;117363;1185;23545;-48
2022/04/23 07:39:25;;;;;;;11.10;4.40;;;;;;;15.81;53.55;99910.21;117410;1185;23483;-58
2022/04/23 07:41:57;;;;;;;15.10;4.50;;;;;;;15.94;53.59;99901.19;117291;1185;24236;-58
2022/04/23 07:44:25;;;;;;;10.50;4.20;;;;;;;16.08;53.42;99901.66;117490;1185;23575;-58
2022/04/23 07:46:55;;;;;;;8.70;4.60;;;;;;;16.14;53.18;99904.40;117343;1185;21860;-49
2022/04/23 07:49:26;;;;;;;10.60;4.90;;;;;;;16.11;52.97;99902.27;117336;1185;21974;-48
2022/04/23 07:51:55;;;;;;;13.20;5.20;;;;;;;16.13;53.03;99897.22;117289;1185;23553;-49
2022/04/23 07:54:23;;;;;;;14.30;4.90;;;;;;;16.18;53.08;99900.52;117348;1186;21883;-49
2022/04/23 07:56:53;;;;;;;12.80;4.70;;;;;;;16.25;53.06;99897.58;117335;1185;22697;-49
2022/04/23 07:59:22;;;;;;;13.60;4.40;;;;;;;16.28;52.91;99904.35;117358;1185;21909;-49
2022/04/23 08:01:51;;;;;;;12.40;4.50;;;;;;;16.25;52.74;99905.88;117369;1184;21849;-48
2022/04/23 08:04:19;;;;;;;11.20;4.10;;;;;;;16.18;52.53;99907.95;117371;1184;23012;-49
2022/04/23 08:06:47;;;;;;;10.20;4.40;;;;;;;16.14;52.66;99904.94;117422;1184;22610;-49
2022/04/23 08:09:17;;;;;;;10.20;4.40;;;;;;;16.11;52.52;99899.27;117381;1185;23551;-49
2022/04/23 08:11:46;;;;;;;12.00;4.50;;;;;;;16.08;52.58;99901.51;117340;1185;22506;-49
2022/04/23 08:14:15;;;;;;;10.60;4.60;;;;;;;16.14;52.72;99895.04;117456;1185;23553;-48
2022/04/23 08:16:45;;;;;;;14.90;4.50;;;;;;;16.22;52.59;99895.08;117552;1184;24162;-58
2022/04/23 08:19:13;;;;;;;10.00;4.30;;;;;;;16.27;52.45;99897.89;117377;1185;21853;-57
2022/04/23 08:21:42;;;;;;;13.90;4.40;;;;;;;16.27;52.46;99899.82;117385;1185;24162;-58
2022/04/23 08:24:12;;;;;;;13.80;4.70;;;;;;;16.30;52.54;99890.81;117374;1185;22929;-57
2022/04/23 08:26:40;;;;;;;10.10;4.50;;;;;;;16.36;52.50;99897.46;117444;1184;21997;-48
2022/04/23 08:31:55;;;;;;;13.40;4.40;;;;;;;16.51;52.65;99897.13;117405;1185;24229;-48
2022/04/23 08:34:25;;;;;;;11.50;4.40;;;;;;;16.67;52.51;99895.37;117290;1185;22427;-57
2022/04/23 08:36:54;;;;;;;12.50;3.70;;;;;;;16.80;52.54;99897.27;117442;1185;24173;-58
2022/04/23 08:39:23;;;;;;;9.10;3.90;;;;;;;16.86;52.26;99893.29;117447;1185;21911;-49
2022/04/23 08:41:53;;;;;;;14.70;4.80;;;;;;;16.85;51.84;99897.20;117362;1185;23467;-49
2022/04/23 08:44:21;;;;;;;12.90;4.80;;;;;;;16.82;51.84;99899.13;117377;1185;21893;-58
2022/04/23 08:46:51;;;;;;;12.10;4.40;;;;;;;16.84;51.90;99900.81;117397;1185;23024;-58
2022/04/23 08:49:19;;;;;;;8.70;4.10;;;;;;;16.96;52.31;99903.64;117456;1184;22935;-58
2022/04/23 08:51:51;;;;;;;11.70;4.30;;;;;;;17.20;52.09;99897.06;117361;1185;24169;-57
2022/04/23 08:54:24;;;;;;;11.00;4.30;;;;;;;17.36;52.06;99895.41;117295;1185;21853;-49
2022/04/23 08:56:55;;;;;;;14.00;4.90;;;;;;;17.53;52.20;99896.16;117355;1181;21868;-50
2022/04/23 08:59:23;;;;;;;11.00;4.00;;;;;;;17.67;52.41;99893.89;117303;1185;23630;-49
2022/04/23 09:02:14;;;;;;;11.20;4.10;;;;;;;17.81;52.24;99888.98;117200;1185;22826;-49
2022/04/23 09:04:43;;;;;;;12.20;4.40;;;;;;;17.79;51.69;99882.85;117315;1185;21876;-49
2022/04/23 09:07:25;;;;;;;14.50;4.70;;;;;;;17.79;51.76;99878.42;117403;1185;21908;-49
2022/04/23 09:09:54;;;;;;;15.70;5.70;;;;;;;17.87;51.65;99875.90;117317;1185;21847;-49
2022/04/23 09:12:27;;;;;;;14.50;4.40;;;;;;;17.96;51.86;99873.30;117335;1186;21896;-49
2022/04/23 09:23:39;;;;;;;13.80;4.80;;;;;;;18.64;52.16;99857.17;117308;1186;22160;-50
2022/04/23 09:26:16;;;;;;;13.50;4.50;;;;;;;18.81;51.64;99846.65;117279;1184;23550;-49
2022/04/23 09:28:46;;;;;;;11.30;3.90;;;;;;;18.74;50.90;99844.88;117324;1185;22608;-48
2022/04/23 09:31:15;;;;;;;12.20;5.00;;;;;;;18.71;51.21;99836.70;117281;1185;22997;-56
2022/04/23 09:33:49;;;;;;;11.80;4.30;;;;;;;18.83;51.54;99833.91;117321;1187;21848;-58
2022/04/23 09:36:17;;;;;;;12.10;4.40;;;;;;;19.02;51.66;99829.73;117379;1185;22630;-57
2022/04/23 09:39:00;;;;;;;11.80;4.00;;;;;;;19.16;51.56;99829.30;117361;1185;21888;-57
2022/04/23 09:41:32;;;;;;;12.00;4.40;;;;;;;19.23;51.09;99827.27;117390;1185;21840;-57
2022/04/23 09:44:09;;;;;;;25.30;4.80;;;;;;;19.27;51.05;99826.54;117369;1181;22961;-48
2022/04/23 09:46:48;;;;;;;11.30;4.30;;;;;;;19.30;51.09;99831.87;117456;1185;23490;-49
2022/04/23 09:49:38;;;;;;;13.70;3.90;;;;;;;19.43;51.13;99832.35;117426;1186;24761;-48
2022/04/23 09:52:09;;;;;;;10.60;4.20;;;;;;;19.52;51.06;99826.66;117386;1185;21938;-48
2022/04/23 09:54:39;;;;;;;11.40;4.00;;;;;;;19.64;50.90;99826.73;117422;1184;23125;-57
2022/04/23 09:57:07;;;;;;;10.50;4.10;;;;;;;19.75;50.83;99825.52;117377;1185;21868;-57
2022/04/23 09:59:36;;;;;;;12.60;3.90;;;;;;;19.79;50.43;99823.71;117397;1185;23576;-48
2022/04/23 10:02:07;;;;;;;;;;;;;;;19.85;50.52;99824.61;117353;1186;23436;-48
2022/04/23 10:04:37;;;;;;;;;;;;;;;19.91;50.08;99835.27;117399;1185;23545;-57
2022/04/23 10:07:05;;;;;;;13.00;3.80;;;;;;;19.97;50.09;99842.64;117431;1184;24169;-57
2022/04/23 10:09:38;;;;;;;10.30;3.80;;;;;;;20.05;49.98;99845.86;117347;1185;22925;-57
2022/04/23 10:12:17;;;;;;;16.50;5.40;;;;;;;20.15;49.85;99837.60;117295;1185;23550;-48
2022/04/23 10:14:56;;;;;;;13.50;4.30;;;;;;;20.30;50.21;99841.49;117349;1184;23591;-49
2022/04/23 10:17:24;;;;;;;10.60;4.00;;;;;;;20.42;49.40;99841.80;117398;1185;22988;-48
2022/04/23 10:20:00;;;;;;;16.90;4.60;;;;;;;20.37;49.38;99832.15;117343;1185;23634;-48
2022/04/23 10:22:43;;;;;;;11.20;3.70;;;;;;;20.33;49.12;99833.48;117238;1184;22706;-48
2022/04/23 10:25:17;;;;;;;15.10;4.50;;;;;;;20.24;49.00;99829.05;117343;1185;21863;-47
2022/04/23 10:27:46;;;;;;;17.60;4.80;;;;;;;20.22;49.43;99817.23;117417;1184;23688;-47
2022/04/23 10:30:17;;;;;;;15.00;5.40;;;;;;;20.35;49.69;99814.48;117338;1185;22941;-53
2022/04/23 10:32:45;;;;;;;17.40;8.70;;;;;;;20.48;49.35;99810.61;117388;1186;23561;-58
2022/04/23 10:35:16;;;;;;;32.10;14.00;;;;;;;20.62;49.46;99808.52;117363;1185;23576;-49
2022/04/23 10:37:49;;;;;;;13.50;5.70;;;;;;;20.82;49.71;99806.57;117258;1185;23555;-49
2022/04/23 10:40:18;;;;;;;20.60;9.10;;;;;;;20.98;48.93;99798.77;117269;1185;22825;-49
2022/04/23 10:43:06;;;;;;;16.80;5.70;;;;;;;20.99;48.84;99791.95;117350;1185;23670;-49
2022/04/23 10:45:35;;;;;;;17.80;8.40;;;;;;;21.07;48.94;99796.20;117342;1184;23573;-48
2022/04/23 10:48:29;;;;;;;13.60;4.70;;;;;;;21.18;48.80;99791.61;117304;1185;21924;-48
2022/04/23 10:51:21;;;;;;;14.80;4.90;;;;;;;20.98;47.72;99796.59;117298;1185;22614;-49
2022/04/23 10:53:52;;;;;;;17.80;7.20;;;;;;;20.65;47.33;99801.20;117324;1185;21855;-48
2022/04/23 10:56:21;;;;;;;23.20;9.00;;;;;;;20.45;47.93;99798.67;117478;1185;21848;-49
2022/04/23 10:58:51;;;;;;;32.60;14.90;;;;;;;20.49;48.22;99798.08;117353;1185;22622;-49
2022/04/23 11:01:25;;;;;;;17.00;6.90;;;;;;;20.58;48.31;99804.16;117232;1188;23555;-49
2022/04/23 11:04:09;;;;;;;32.10;15.30;;;;;;;20.67;48.46;99808.20;117346;1185;22817;-49
2022/04/23 11:12:55;;;;;;;14.70;6.00;;;;;;;20.72;47.83;99797.40;117322;1187;23646;-49
2022/04/23 11:15:23;;;;;;;11.40;5.00;;;;;;;20.58;47.52;99798.23;118624;1185;23551;-57
2022/04/23 11:17:58;;;;;;;20.30;10.50;;;;;;;20.32;47.34;99803.42;118082;1185;23649;-49
2022/04/23 11:20:34;;;;;;;16.00;4.70;;;;;;;20.13;47.47;99802.29;117359;1184;22823;-50
2022/04/23 11:23:03;;;;;;;13.60;4.80;;;;;;;19.99;47.52;99794.23;117283;1186;21861;-58
2022/04/23 11:25:36;;;;;;;11.00;4.10;;;;;;;19.82;46.91;99800.92;117224;1186;23552;-58
2022/04/23 11:28:14;;;;;;;12.50;4.70;;;;;;;19.56;46.74;99806.90;117405;1184;24166;-48
2022/04/23 11:30:42;;;;;;;14.60;4.80;;;;;;;19.30;46.97;99798.45;117347;1185;23404;-49
2022/04/23 11:33:14;;;;;;;18.30;4.60;;;;;;;19.18;47.23;99788.99;117347;1185;23541;-48
2022/04/23 11:35:48;;;;;;;15.90;6.10;;;;;;;19.08;47.29;99785.08;117288;1186;23554;-48
2022/04/23 11:38:20;;;;;;;11.60;4.10;;;;;;;19.00;47.33;99785.91;117371;1185;23615;-49
2022/04/23 11:40:52;;;;;;;14.00;5.00;;;;;;;18.93;47.53;99785.42;117295;1185;22960;-49
2022/04/23 11:43:30;;;;;;;16.10;4.70;;;;;;;18.85;47.42;99785.80;117325;1185;23553;-49
2022/04/23 11:46:06;;;;;;;15.30;4.60;;;;;;;18.75;47.32;99779.28;117378;1185;22623;-48
2022/04/23 11:48:54;;;;;;;14.80;5.10;;;;;;;18.66;47.46;99779.75;117302;1186;22935;-48
2022/04/23 11:51:22;;;;;;;16.50;5.00;;;;;;;18.61;47.22;99770.98;117373;1185;21858;-48
2022/04/23 11:53:58;;;;;;;13.60;4.40;;;;;;;18.54;47.36;99770.66;117432;1185;23324;-48
2022/04/23 11:56:29;;;;;;;15.60;4.60;;;;;;;18.48;47.10;99770.46;117332;1185;21843;-49
2022/04/23 11:59:09;;;;;;;;;;;;;;;18.46;47.02;99758.31;117325;1188;21836;-49